sensor_id;sensor_type;location;lat;lon;timestamp;temperature;humidity
77839;SHT31;67034;43.226;27.932;2023-04-15T00:00:51;12.04;77.08
77839;SHT31;67034;43.226;27.932;2023-04-15T00:03:18;12.03;78.31
77839;SHT31;67034;43.226;27.932;2023-04-15T00:05:45;12.03;78.23
77839;SHT31;67034;43.226;27.932;2023-04-15T00:08:11;12.08;77.82
77839;SHT31;67034;43.226;27.932;2023-04-15T00:10:37;12.07;78.08
77839;SHT31;67034;43.226;27.932;2023-04-15T00:13:03;12.06;78.90
77839;SHT31;67034;43.226;27.932;2023-04-15T00:15:28;12.01;79.47
77839;SHT31;67034;43.226;27.932;2023-04-15T00:17:54;12.10;78.62
77839;SHT31;67034;43.226;27.932;2023-04-15T00:20:21;12.21;78.35
77839;SHT31;67034;43.226;27.932;2023-04-15T00:22:48;12.28;78.94
77839;SHT31;67034;43.226;27.932;2023-04-15T00:25:14;12.28;79.44
77839;SHT31;67034;43.226;27.932;2023-04-15T00:27:39;12.37;78.55
77839;SHT31;67034;43.226;27.932;2023-04-15T00:30:06;12.40;79.01
77839;SHT31;67034;43.226;27.932;2023-04-15T00:32:32;12.37;79.54
77839;SHT31;67034;43.226;27.932;2023-04-15T00:34:58;12.42;78.54
77839;SHT31;67034;43.226;27.932;2023-04-15T00:37:24;12.49;78.19
77839;SHT31;67034;43.226;27.932;2023-04-15T00:39:51;12.59;76.08
77839;SHT31;67034;43.226;27.932;2023-04-15T00:42:17;12.54;77.07
77839;SHT31;67034;43.226;27.932;2023-04-15T00:44:43;12.55;77.04
77839;SHT31;67034;43.226;27.932;2023-04-15T00:47:09;12.54;77.46
77839;SHT31;67034;43.226;27.932;2023-04-15T00:49:35;12.52;78.49
77839;SHT31;67034;43.226;27.932;2023-04-15T00:52:02;12.45;79.10
77839;SHT31;67034;43.226;27.932;2023-04-15T00:54:28;12.46;78.81
77839;SHT31;67034;43.226;27.932;2023-04-15T00:56:55;12.48;77.98
77839;SHT31;67034;43.226;27.932;2023-04-15T00:59:22;12.42;78.72
77839;SHT31;67034;43.226;27.932;2023-04-15T01:01:48;12.37;79.91
77839;SHT31;67034;43.226;27.932;2023-04-15T01:04:15;12.49;76.34
77839;SHT31;67034;43.226;27.932;2023-04-15T01:06:40;12.96;72.13
77839;SHT31;67034;43.226;27.932;2023-04-15T01:09:06;13.04;74.33
77839;SHT31;67034;43.226;27.932;2023-04-15T01:11:32;13.02;76.23
77839;SHT31;67034;43.226;27.932;2023-04-15T01:14:00;12.92;76.34
77839;SHT31;67034;43.226;27.932;2023-04-15T01:16:26;12.89;76.44
77839;SHT31;67034;43.226;27.932;2023-04-15T01:18:56;12.86;76.46
77839;SHT31;67034;43.226;27.932;2023-04-15T01:21:22;12.93;76.04
77839;SHT31;67034;43.226;27.932;2023-04-15T01:23:48;12.93;76.34
77839;SHT31;67034;43.226;27.932;2023-04-15T01:26:16;12.92;76.57
77839;SHT31;67034;43.226;27.932;2023-04-15T01:28:42;13.03;75.62
77839;SHT31;67034;43.226;27.932;2023-04-15T01:31:11;13.12;74.40
77839;SHT31;67034;43.226;27.932;2023-04-15T01:33:38;13.17;75.67
77839;SHT31;67034;43.226;27.932;2023-04-15T01:36:05;13.24;74.28
77839;SHT31;67034;43.226;27.932;2023-04-15T01:38:33;13.12;76.59
77839;SHT31;67034;43.226;27.932;2023-04-15T01:40:58;13.04;76.01
77839;SHT31;67034;43.226;27.932;2023-04-15T01:43:26;13.16;75.29
77839;SHT31;67034;43.226;27.932;2023-04-15T01:45:52;13.22;74.90
77839;SHT31;67034;43.226;27.932;2023-04-15T01:48:18;13.24;75.19
77839;SHT31;67034;43.226;27.932;2023-04-15T01:50:44;13.12;76.72
77839;SHT31;67034;43.226;27.932;2023-04-15T01:53:10;13.03;77.09
77839;SHT31;67034;43.226;27.932;2023-04-15T01:55:35;13.00;76.85
77839;SHT31;67034;43.226;27.932;2023-04-15T01:58:01;13.03;76.87
77839;SHT31;67034;43.226;27.932;2023-04-15T02:00:28;13.13;75.98
77839;SHT31;67034;43.226;27.932;2023-04-15T02:02:55;13.10;76.44
77839;SHT31;67034;43.226;27.932;2023-04-15T02:05:20;13.09;77.12
77839;SHT31;67034;43.226;27.932;2023-04-15T02:07:46;13.17;75.90
77839;SHT31;67034;43.226;27.932;2023-04-15T02:10:13;13.17;76.99
77839;SHT31;67034;43.226;27.932;2023-04-15T02:12:40;13.13;77.94
77839;SHT31;67034;43.226;27.932;2023-04-15T02:15:07;13.09;77.08
77839;SHT31;67034;43.226;27.932;2023-04-15T02:17:35;13.02;76.80
77839;SHT31;67034;43.226;27.932;2023-04-15T02:20:01;13.00;77.79
77839;SHT31;67034;43.226;27.932;2023-04-15T02:22:26;12.96;77.28
77839;SHT31;67034;43.226;27.932;2023-04-15T02:24:53;12.96;77.87
77839;SHT31;67034;43.226;27.932;2023-04-15T02:27:18;13.03;77.97
77839;SHT31;67034;43.226;27.932;2023-04-15T02:29:44;13.04;78.54
77839;SHT31;67034;43.226;27.932;2023-04-15T02:32:10;12.91;79.20
77839;SHT31;67034;43.226;27.932;2023-04-15T02:34:37;13.00;77.20
77839;SHT31;67034;43.226;27.932;2023-04-15T02:37:05;13.00;78.48
77839;SHT31;67034;43.226;27.932;2023-04-15T02:39:31;12.92;78.67
77839;SHT31;67034;43.226;27.932;2023-04-15T02:41:57;12.96;78.30
77839;SHT31;67034;43.226;27.932;2023-04-15T02:44:24;13.00;78.95
77839;SHT31;67034;43.226;27.932;2023-04-15T02:46:50;12.95;78.40
77839;SHT31;67034;43.226;27.932;2023-04-15T02:49:17;12.91;78.78
77839;SHT31;67034;43.226;27.932;2023-04-15T02:51:44;12.88;78.70
77839;SHT31;67034;43.226;27.932;2023-04-15T02:54:13;12.88;78.19
77839;SHT31;67034;43.226;27.932;2023-04-15T02:56:40;12.93;77.90
77839;SHT31;67034;43.226;27.932;2023-04-15T02:59:05;12.96;77.96
77839;SHT31;67034;43.226;27.932;2023-04-15T03:01:31;12.99;78.00
77839;SHT31;67034;43.226;27.932;2023-04-15T03:03:57;12.99;77.93
77839;SHT31;67034;43.226;27.932;2023-04-15T03:06:22;13.02;77.96
77839;SHT31;67034;43.226;27.932;2023-04-15T03:08:50;13.06;77.50
77839;SHT31;67034;43.226;27.932;2023-04-15T03:11:16;13.10;77.29
77839;SHT31;67034;43.226;27.932;2023-04-15T03:13:43;13.13;77.71
77839;SHT31;67034;43.226;27.932;2023-04-15T03:16:09;13.02;78.80
77839;SHT31;67034;43.226;27.932;2023-04-15T03:18:34;12.96;79.25
77839;SHT31;67034;43.226;27.932;2023-04-15T03:21:00;12.95;78.80
77839;SHT31;67034;43.226;27.932;2023-04-15T03:23:27;13.03;78.04
77839;SHT31;67034;43.226;27.932;2023-04-15T03:25:54;13.04;77.45
77839;SHT31;67034;43.226;27.932;2023-04-15T03:28:22;13.10;76.84
77839;SHT31;67034;43.226;27.932;2023-04-15T03:30:47;13.10;77.24
77839;SHT31;67034;43.226;27.932;2023-04-15T03:33:13;12.93;79.06
77839;SHT31;67034;43.226;27.932;2023-04-15T03:35:39;12.85;78.75
77839;SHT31;67034;43.226;27.932;2023-04-15T03:38:04;12.91;78.18
77839;SHT31;67034;43.226;27.932;2023-04-15T03:40:30;12.92;77.95
77839;SHT31;67034;43.226;27.932;2023-04-15T03:42:57;12.95;77.61
77839;SHT31;67034;43.226;27.932;2023-04-15T03:45:24;12.96;77.65
77839;SHT31;67034;43.226;27.932;2023-04-15T03:47:50;12.85;79.20
77839;SHT31;67034;43.226;27.932;2023-04-15T03:50:16;12.82;79.33
77839;SHT31;67034;43.226;27.932;2023-04-15T03:52:41;12.88;78.58
77839;SHT31;67034;43.226;27.932;2023-04-15T03:55:08;12.93;79.32
77839;SHT31;67034;43.226;27.932;2023-04-15T03:57:34;12.92;79.42
77839;SHT31;67034;43.226;27.932;2023-04-15T04:00:06;12.89;79.62
77839;SHT31;67034;43.226;27.932;2023-04-15T04:02:33;12.95;80.10
77839;SHT31;67034;43.226;27.932;2023-04-15T04:04:59;12.99;80.62
77839;SHT31;67034;43.226;27.932;2023-04-15T04:07:25;12.95;80.88
77839;SHT31;67034;43.226;27.932;2023-04-15T04:09:53;12.91;80.83
77839;SHT31;67034;43.226;27.932;2023-04-15T04:12:19;12.96;80.45
77839;SHT31;67034;43.226;27.932;2023-04-15T04:14:45;13.03;80.90
77839;SHT31;67034;43.226;27.932;2023-04-15T04:17:12;13.07;80.90
77839;SHT31;67034;43.226;27.932;2023-04-15T04:19:38;13.17;78.71
77839;SHT31;67034;43.226;27.932;2023-04-15T04:22:04;13.30;77.36
77839;SHT31;67034;43.226;27.932;2023-04-15T04:24:30;13.41;76.93
77839;SHT31;67034;43.226;27.932;2023-04-15T04:26:56;13.77;71.97
77839;SHT31;67034;43.226;27.932;2023-04-15T04:29:22;13.89;73.10
77839;SHT31;67034;43.226;27.932;2023-04-15T04:31:47;13.95;72.41
77839;SHT31;67034;43.226;27.932;2023-04-15T04:34:15;14.09;69.75
77839;SHT31;67034;43.226;27.932;2023-04-15T04:36:40;14.19;69.68
77839;SHT31;67034;43.226;27.932;2023-04-15T04:39:06;14.25;69.57
77839;SHT31;67034;43.226;27.932;2023-04-15T04:41:32;14.26;69.54
77839;SHT31;67034;43.226;27.932;2023-04-15T04:43:58;14.20;71.23
77839;SHT31;67034;43.226;27.932;2023-04-15T04:46:24;14.18;71.39
77839;SHT31;67034;43.226;27.932;2023-04-15T04:48:49;14.15;71.44
77839;SHT31;67034;43.226;27.932;2023-04-15T04:51:17;14.20;71.25
77839;SHT31;67034;43.226;27.932;2023-04-15T04:53:43;14.22;71.50
77839;SHT31;67034;43.226;27.932;2023-04-15T04:56:09;14.26;71.22
77839;SHT31;67034;43.226;27.932;2023-04-15T04:58:35;14.44;69.37
77839;SHT31;67034;43.226;27.932;2023-04-15T05:01:00;14.34;69.46
77839;SHT31;67034;43.226;27.932;2023-04-15T05:03:27;14.28;70.27
77839;SHT31;67034;43.226;27.932;2023-04-15T05:05:53;14.20;70.60
77839;SHT31;67034;43.226;27.932;2023-04-15T05:08:20;14.29;69.93
77839;SHT31;67034;43.226;27.932;2023-04-15T05:10:46;14.30;70.07
77839;SHT31;67034;43.226;27.932;2023-04-15T05:13:12;14.37;70.33
77839;SHT31;67034;43.226;27.932;2023-04-15T05:15:37;14.37;71.35
77839;SHT31;67034;43.226;27.932;2023-04-15T05:18:05;14.36;70.53
77839;SHT31;67034;43.226;27.932;2023-04-15T05:20:31;14.40;71.10
77839;SHT31;67034;43.226;27.932;2023-04-15T05:22:57;14.56;69.28
77839;SHT31;67034;43.226;27.932;2023-04-15T05:25:24;14.60;69.43
77839;SHT31;67034;43.226;27.932;2023-04-15T05:27:50;14.56;69.34
77839;SHT31;67034;43.226;27.932;2023-04-15T05:30:16;14.56;69.73
77839;SHT31;67034;43.226;27.932;2023-04-15T05:32:42;14.60;69.82
77839;SHT31;67034;43.226;27.932;2023-04-15T05:35:08;14.44;71.11
77839;SHT31;67034;43.226;27.932;2023-04-15T05:37:34;14.39;71.82
77839;SHT31;67034;43.226;27.932;2023-04-15T05:40:00;14.36;71.94
77839;SHT31;67034;43.226;27.932;2023-04-15T05:42:27;14.30;72.14
77839;SHT31;67034;43.226;27.932;2023-04-15T05:44:53;14.47;70.91
77839;SHT31;67034;43.226;27.932;2023-04-15T05:47:19;14.57;69.42
77839;SHT31;67034;43.226;27.932;2023-04-15T05:49:44;14.57;69.84
77839;SHT31;67034;43.226;27.932;2023-04-15T05:52:10;14.40;70.10
77839;SHT31;67034;43.226;27.932;2023-04-15T05:54:36;14.34;69.64
77839;SHT31;67034;43.226;27.932;2023-04-15T05:57:02;14.32;69.85
77839;SHT31;67034;43.226;27.932;2023-04-15T05:59:29;14.28;70.25
77839;SHT31;67034;43.226;27.932;2023-04-15T06:01:55;14.19;70.48
77839;SHT31;67034;43.226;27.932;2023-04-15T06:04:21;14.08;70.85
77839;SHT31;67034;43.226;27.932;2023-04-15T06:06:47;14.04;71.29
77839;SHT31;67034;43.226;27.932;2023-04-15T06:09:13;13.97;71.71
77839;SHT31;67034;43.226;27.932;2023-04-15T06:11:38;13.86;72.48
77839;SHT31;67034;43.226;27.932;2023-04-15T06:14:05;13.88;72.62
77839;SHT31;67034;43.226;27.932;2023-04-15T06:16:32;13.88;73.53
77839;SHT31;67034;43.226;27.932;2023-04-15T06:19:01;13.70;74.62
77839;SHT31;67034;43.226;27.932;2023-04-15T06:21:27;13.47;75.79
77839;SHT31;67034;43.226;27.932;2023-04-15T06:23:54;13.33;77.30
77839;SHT31;67034;43.226;27.932;2023-04-15T06:26:21;13.26;78.52
77839;SHT31;67034;43.226;27.932;2023-04-15T06:28:47;13.17;79.39
77839;SHT31;67034;43.226;27.932;2023-04-15T06:31:13;13.20;78.66
77839;SHT31;67034;43.226;27.932;2023-04-15T06:33:40;13.07;79.42
77839;SHT31;67034;43.226;27.932;2023-04-15T06:36:06;13.00;80.00
77839;SHT31;67034;43.226;27.932;2023-04-15T06:38:32;13.00;80.66
77839;SHT31;67034;43.226;27.932;2023-04-15T06:40:57;12.99;80.14
77839;SHT31;67034;43.226;27.932;2023-04-15T06:43:23;12.93;81.09
77839;SHT31;67034;43.226;27.932;2023-04-15T06:45:49;12.93;82.68
77839;SHT31;67034;43.226;27.932;2023-04-15T06:48:15;12.92;82.57
77839;SHT31;67034;43.226;27.932;2023-04-15T06:50:42;12.93;82.59
77839;SHT31;67034;43.226;27.932;2023-04-15T06:53:08;13.00;82.29
77839;SHT31;67034;43.226;27.932;2023-04-15T06:55:34;13.06;82.04
77839;SHT31;67034;43.226;27.932;2023-04-15T06:58:00;13.12;81.06
77839;SHT31;67034;43.226;27.932;2023-04-15T07:00:25;13.22;80.15
77839;SHT31;67034;43.226;27.932;2023-04-15T07:02:52;13.26;79.77
77839;SHT31;67034;43.226;27.932;2023-04-15T07:05:19;13.34;80.14
77839;SHT31;67034;43.226;27.932;2023-04-15T07:07:47;13.43;79.87
77839;SHT31;67034;43.226;27.932;2023-04-15T07:10:12;13.60;78.77
77839;SHT31;67034;43.226;27.932;2023-04-15T07:12:40;13.72;78.72
77839;SHT31;67034;43.226;27.932;2023-04-15T07:15:06;13.77;77.10
77839;SHT31;67034;43.226;27.932;2023-04-15T07:17:32;13.83;77.33
77839;SHT31;67034;43.226;27.932;2023-04-15T07:19:58;14.04;76.13
77839;SHT31;67034;43.226;27.932;2023-04-15T07:22:24;14.10;75.18
77839;SHT31;67034;43.226;27.932;2023-04-15T07:24:52;14.18;75.41
77839;SHT31;67034;43.226;27.932;2023-04-15T07:27:17;14.20;74.91
77839;SHT31;67034;43.226;27.932;2023-04-15T07:29:43;14.10;74.46
77839;SHT31;67034;43.226;27.932;2023-04-15T07:32:09;14.15;74.55
77839;SHT31;67034;43.226;27.932;2023-04-15T07:34:35;14.28;74.70
77839;SHT31;67034;43.226;27.932;2023-04-15T07:37:01;14.25;74.91
77839;SHT31;67034;43.226;27.932;2023-04-15T07:39:26;14.25;74.76
77839;SHT31;67034;43.226;27.932;2023-04-15T07:41:55;14.33;74.28
77839;SHT31;67034;43.226;27.932;2023-04-15T07:44:20;14.55;73.22
77839;SHT31;67034;43.226;27.932;2023-04-15T07:46:46;14.70;72.08
77839;SHT31;67034;43.226;27.932;2023-04-15T07:49:12;14.84;71.53
77839;SHT31;67034;43.226;27.932;2023-04-15T07:51:38;14.98;70.91
77839;SHT31;67034;43.226;27.932;2023-04-15T07:54:04;15.31;69.88
77839;SHT31;67034;43.226;27.932;2023-04-15T07:56:30;15.49;67.48
77839;SHT31;67034;43.226;27.932;2023-04-15T07:58:57;15.47;69.07
77839;SHT31;67034;43.226;27.932;2023-04-15T08:01:23;15.65;67.73
77839;SHT31;67034;43.226;27.932;2023-04-15T08:03:48;15.46;68.21
77839;SHT31;67034;43.226;27.932;2023-04-15T08:06:14;15.52;66.72
77839;SHT31;67034;43.226;27.932;2023-04-15T08:08:40;15.70;66.08
77839;SHT31;67034;43.226;27.932;2023-04-15T08:11:06;15.79;67.93
77839;SHT31;67034;43.226;27.932;2023-04-15T08:13:31;15.86;65.50
77839;SHT31;67034;43.226;27.932;2023-04-15T08:16:16;15.93;65.40
77839;SHT31;67034;43.226;27.932;2023-04-15T08:18:43;15.80;65.30
77839;SHT31;67034;43.226;27.932;2023-04-15T08:21:09;15.83;65.98
77839;SHT31;67034;43.226;27.932;2023-04-15T08:23:34;15.89;64.81
77839;SHT31;67034;43.226;27.932;2023-04-15T08:26:00;15.93;65.15
77839;SHT31;67034;43.226;27.932;2023-04-15T08:28:26;15.97;64.12
77839;SHT31;67034;43.226;27.932;2023-04-15T08:30:52;15.97;63.70
77839;SHT31;67034;43.226;27.932;2023-04-15T08:33:19;16.03;65.50
77839;SHT31;67034;43.226;27.932;2023-04-15T08:35:45;16.07;65.06
77839;SHT31;67034;43.226;27.932;2023-04-15T08:38:11;16.13;64.37
77839;SHT31;67034;43.226;27.932;2023-04-15T08:40:40;16.00;64.07
77839;SHT31;67034;43.226;27.932;2023-04-15T08:43:08;16.03;65.49
77839;SHT31;67034;43.226;27.932;2023-04-15T08:45:37;16.08;65.50
77839;SHT31;67034;43.226;27.932;2023-04-15T08:48:04;16.08;65.13
77839;SHT31;67034;43.226;27.932;2023-04-15T08:50:31;16.10;66.53
77839;SHT31;67034;43.226;27.932;2023-04-15T08:52:57;16.05;65.53
77839;SHT31;67034;43.226;27.932;2023-04-15T08:55:24;16.00;65.30
77839;SHT31;67034;43.226;27.932;2023-04-15T08:57:53;16.15;67.38
77839;SHT31;67034;43.226;27.932;2023-04-15T09:00:19;16.29;65.99
77839;SHT31;67034;43.226;27.932;2023-04-15T09:02:45;16.20;65.77
77839;SHT31;67034;43.226;27.932;2023-04-15T09:05:11;16.24;66.03
77839;SHT31;67034;43.226;27.932;2023-04-15T09:07:38;16.32;66.01
77839;SHT31;67034;43.226;27.932;2023-04-15T09:10:05;16.41;66.24
77839;SHT31;67034;43.226;27.932;2023-04-15T09:12:33;16.36;66.78
77839;SHT31;67034;43.226;27.932;2023-04-15T09:14:59;16.42;67.02
77839;SHT31;67034;43.226;27.932;2023-04-15T09:17:25;16.41;67.46
77839;SHT31;67034;43.226;27.932;2023-04-15T09:20:07;16.41;67.76
77839;SHT31;67034;43.226;27.932;2023-04-15T09:22:33;16.58;65.45
77839;SHT31;67034;43.226;27.932;2023-04-15T09:25:00;16.75;67.05
77839;SHT31;67034;43.226;27.932;2023-04-15T09:27:26;16.94;65.10
77839;SHT31;67034;43.226;27.932;2023-04-15T09:29:52;17.21;63.61
77839;SHT31;67034;43.226;27.932;2023-04-15T09:32:18;17.44;63.53
77839;SHT31;67034;43.226;27.932;2023-04-15T09:34:45;17.45;61.87
77839;SHT31;67034;43.226;27.932;2023-04-15T09:37:12;17.27;62.52
77839;SHT31;67034;43.226;27.932;2023-04-15T09:39:48;17.52;60.62
77839;SHT31;67034;43.226;27.932;2023-04-15T09:42:15;17.58;61.65
77839;SHT31;67034;43.226;27.932;2023-04-15T09:44:51;17.54;60.64
77839;SHT31;67034;43.226;27.932;2023-04-15T09:47:26;17.65;60.31
77839;SHT31;67034;43.226;27.932;2023-04-15T09:49:54;17.90;59.75
77839;SHT31;67034;43.226;27.932;2023-04-15T09:52:20;18.23;59.87
77839;SHT31;67034;43.226;27.932;2023-04-15T09:54:46;18.51;57.71
77839;SHT31;67034;43.226;27.932;2023-04-15T09:57:12;18.51;57.68
77839;SHT31;67034;43.226;27.932;2023-04-15T09:59:39;18.36;57.67
77839;SHT31;67034;43.226;27.932;2023-04-15T10:02:05;18.32;57.75
77839;SHT31;67034;43.226;27.932;2023-04-15T10:04:35;18.27;58.16
77839;SHT31;67034;43.226;27.932;2023-04-15T10:07:04;18.23;59.23
77839;SHT31;67034;43.226;27.932;2023-04-15T10:09:30;18.05;58.75
77839;SHT31;67034;43.226;27.932;2023-04-15T10:11:57;18.03;57.91
77839;SHT31;67034;43.226;27.932;2023-04-15T10:14:24;17.99;58.78
77839;SHT31;67034;43.226;27.932;2023-04-15T10:16:55;18.10;57.68
77839;SHT31;67034;43.226;27.932;2023-04-15T10:19:24;18.22;58.06
77839;SHT31;67034;43.226;27.932;2023-04-15T10:21:52;18.34;58.17
77839;SHT31;67034;43.226;27.932;2023-04-15T10:24:19;18.44;56.95
77839;SHT31;67034;43.226;27.932;2023-04-15T10:26:46;18.48;57.01
77839;SHT31;67034;43.226;27.932;2023-04-15T10:29:12;18.56;56.85
77839;SHT31;67034;43.226;27.932;2023-04-15T10:31:38;18.58;56.92
77839;SHT31;67034;43.226;27.932;2023-04-15T10:34:07;18.61;57.71
77839;SHT31;67034;43.226;27.932;2023-04-15T10:36:34;18.85;56.50
77839;SHT31;67034;43.226;27.932;2023-04-15T10:38:59;18.83;57.22
77839;SHT31;67034;43.226;27.932;2023-04-15T10:41:26;19.18;56.28
77839;SHT31;67034;43.226;27.932;2023-04-15T10:43:59;19.57;55.08
77839;SHT31;67034;43.226;27.932;2023-04-15T10:46:34;19.53;54.20
77839;SHT31;67034;43.226;27.932;2023-04-15T10:49:08;19.18;55.17
77839;SHT31;67034;43.226;27.932;2023-04-15T10:51:37;19.42;55.60
77839;SHT31;67034;43.226;27.932;2023-04-15T10:54:08;20.01;53.14
77839;SHT31;67034;43.226;27.932;2023-04-15T10:56:37;20.07;51.90
77839;SHT31;67034;43.226;27.932;2023-04-15T10:59:05;19.91;53.26
77839;SHT31;67034;43.226;27.932;2023-04-15T11:01:51;20.28;51.78
77839;SHT31;67034;43.226;27.932;2023-04-15T11:07:35;20.56;50.29
77839;SHT31;67034;43.226;27.932;2023-04-15T11:10:02;20.63;50.33
77839;SHT31;67034;43.226;27.932;2023-04-15T11:12:36;20.65;50.48
77839;SHT31;67034;43.226;27.932;2023-04-15T11:15:23;20.82;49.06
77839;SHT31;67034;43.226;27.932;2023-04-15T11:17:50;21.24;48.53
77839;SHT31;67034;43.226;27.932;2023-04-15T11:20:16;21.10;47.62
77839;SHT31;67034;43.226;27.932;2023-04-15T11:22:49;21.48;46.77
77839;SHT31;67034;43.226;27.932;2023-04-15T11:25:25;21.57;47.77
77839;SHT31;67034;43.226;27.932;2023-04-15T11:27:52;21.62;45.77
77839;SHT31;67034;43.226;27.932;2023-04-15T11:30:19;21.55;45.21
77839;SHT31;67034;43.226;27.932;2023-04-15T11:32:46;21.63;47.24
77839;SHT31;67034;43.226;27.932;2023-04-15T11:35:12;20.56;52.25
77839;SHT31;67034;43.226;27.932;2023-04-15T11:37:38;20.53;52.43
77839;SHT31;67034;43.226;27.932;2023-04-15T11:40:07;20.31;52.27
77839;SHT31;67034;43.226;27.932;2023-04-15T11:42:33;20.07;53.30
77839;SHT31;67034;43.226;27.932;2023-04-15T11:45:06;20.01;53.75
77839;SHT31;67034;43.226;27.932;2023-04-15T11:47:32;19.93;53.40
77839;SHT31;67034;43.226;27.932;2023-04-15T11:50:13;20.22;52.90
77839;SHT31;67034;43.226;27.932;2023-04-15T11:52:38;20.77;52.98
77839;SHT31;67034;43.226;27.932;2023-04-15T11:55:06;21.04;50.82
77839;SHT31;67034;43.226;27.932;2023-04-15T11:57:34;21.08;50.43
77839;SHT31;67034;43.226;27.932;2023-04-15T12:00:00;21.23;49.14
77839;SHT31;67034;43.226;27.932;2023-04-15T12:02:30;21.06;49.40
77839;SHT31;67034;43.226;27.932;2023-04-15T12:05:02;20.82;50.12
77839;SHT31;67034;43.226;27.932;2023-04-15T12:07:28;20.68;50.30
77839;SHT31;67034;43.226;27.932;2023-04-15T12:09:54;21.00;49.89
77839;SHT31;67034;43.226;27.932;2023-04-15T12:12:26;21.08;49.76
77839;SHT31;67034;43.226;27.932;2023-04-15T12:14:51;21.06;48.83
77839;SHT31;67034;43.226;27.932;2023-04-15T12:17:17;20.99;50.32
77839;SHT31;67034;43.226;27.932;2023-04-15T12:19:43;20.99;50.21
77839;SHT31;67034;43.226;27.932;2023-04-15T12:22:14;21.52;48.42
77839;SHT31;67034;43.226;27.932;2023-04-15T12:24:41;21.82;47.88
77839;SHT31;67034;43.226;27.932;2023-04-15T12:27:10;21.68;48.40
77839;SHT31;67034;43.226;27.932;2023-04-15T12:29:38;21.75;47.33
77839;SHT31;67034;43.226;27.932;2023-04-15T12:32:05;21.66;47.59
77839;SHT31;67034;43.226;27.932;2023-04-15T12:34:36;21.85;47.50
77839;SHT31;67034;43.226;27.932;2023-04-15T12:37:05;21.68;48.52
77839;SHT31;67034;43.226;27.932;2023-04-15T12:39:34;21.75;48.59
77839;SHT31;67034;43.226;27.932;2023-04-15T12:42:00;21.50;49.44
77839;SHT31;67034;43.226;27.932;2023-04-15T12:44:27;20.97;49.91
77839;SHT31;67034;43.226;27.932;2023-04-15T12:46:54;21.24;49.57
77839;SHT31;67034;43.226;27.932;2023-04-15T12:49:21;21.51;48.75
77839;SHT31;67034;43.226;27.932;2023-04-15T12:51:47;21.58;47.73
77839;SHT31;67034;43.226;27.932;2023-04-15T12:54:14;21.55;48.93
77839;SHT31;67034;43.226;27.932;2023-04-15T12:56:41;22.14;47.06
77839;SHT31;67034;43.226;27.932;2023-04-15T12:59:06;22.37;46.04
77839;SHT31;67034;43.226;27.932;2023-04-15T13:01:32;22.56;46.33
77839;SHT31;67034;43.226;27.932;2023-04-15T13:03:59;22.63;46.66
77839;SHT31;67034;43.226;27.932;2023-04-15T13:06:25;23.01;45.38
77839;SHT31;67034;43.226;27.932;2023-04-15T13:08:51;23.32;44.26
77839;SHT31;67034;43.226;27.932;2023-04-15T13:11:19;23.50;44.22
77839;SHT31;67034;43.226;27.932;2023-04-15T13:13:45;23.73;42.99
77839;SHT31;67034;43.226;27.932;2023-04-15T13:16:10;23.75;43.04
77839;SHT31;67034;43.226;27.932;2023-04-15T13:18:36;23.94;42.07
77839;SHT31;67034;43.226;27.932;2023-04-15T13:21:03;23.81;42.70
77839;SHT31;67034;43.226;27.932;2023-04-15T13:23:31;23.81;43.87
77839;SHT31;67034;43.226;27.932;2023-04-15T13:25:57;23.83;42.38
77839;SHT31;67034;43.226;27.932;2023-04-15T13:28:23;22.84;43.53
77839;SHT31;67034;43.226;27.932;2023-04-15T13:30:50;22.26;45.06
77839;SHT31;67034;43.226;27.932;2023-04-15T13:33:16;22.00;46.30
77839;SHT31;67034;43.226;27.932;2023-04-15T13:35:42;21.95;46.88
77839;SHT31;67034;43.226;27.932;2023-04-15T13:38:09;21.69;46.50
77839;SHT31;67034;43.226;27.932;2023-04-15T13:40:35;21.81;45.36
77839;SHT31;67034;43.226;27.932;2023-04-15T13:43:01;21.78;45.23
77839;SHT31;67034;43.226;27.932;2023-04-15T13:45:27;21.50;45.75
77839;SHT31;67034;43.226;27.932;2023-04-15T13:47:54;21.52;46.41
77839;SHT31;67034;43.226;27.932;2023-04-15T13:50:20;21.66;44.36
77839;SHT31;67034;43.226;27.932;2023-04-15T13:52:46;21.24;44.93
77839;SHT31;67034;43.226;27.932;2023-04-15T13:55:13;21.00;46.66
77839;SHT31;67034;43.226;27.932;2023-04-15T13:57:39;20.99;46.70
77839;SHT31;67034;43.226;27.932;2023-04-15T14:00:08;21.19;47.26
77839;SHT31;67034;43.226;27.932;2023-04-15T14:02:34;21.42;45.63
77839;SHT31;67034;43.226;27.932;2023-04-15T14:04:59;21.41;45.08
77839;SHT31;67034;43.226;27.932;2023-04-15T14:07:25;21.50;45.52
77839;SHT31;67034;43.226;27.932;2023-04-15T14:09:51;21.03;46.45
77839;SHT31;67034;43.226;27.932;2023-04-15T14:12:18;20.79;47.83
77839;SHT31;67034;43.226;27.932;2023-04-15T14:14:44;21.11;47.92
77839;SHT31;67034;43.226;27.932;2023-04-15T14:17:10;20.92;48.25
77839;SHT31;67034;43.226;27.932;2023-04-15T14:19:36;21.00;48.60
77839;SHT31;67034;43.226;27.932;2023-04-15T14:22:01;21.04;48.96
77839;SHT31;67034;43.226;27.932;2023-04-15T14:24:28;21.00;49.77
77839;SHT31;67034;43.226;27.932;2023-04-15T14:26:53;20.96;50.48
77839;SHT31;67034;43.226;27.932;2023-04-15T14:29:20;21.45;50.66
77839;SHT31;67034;43.226;27.932;2023-04-15T14:31:46;21.45;50.27
77839;SHT31;67034;43.226;27.932;2023-04-15T14:34:14;21.27;49.92
77839;SHT31;67034;43.226;27.932;2023-04-15T14:36:40;21.52;50.67
77839;SHT31;67034;43.226;27.932;2023-04-15T14:39:06;21.81;49.13
77839;SHT31;67034;43.226;27.932;2023-04-15T14:41:32;21.32;50.69
77839;SHT31;67034;43.226;27.932;2023-04-15T14:43:58;21.54;50.86
77839;SHT31;67034;43.226;27.932;2023-04-15T14:46:25;21.47;50.70
77839;SHT31;67034;43.226;27.932;2023-04-15T14:48:51;21.06;52.90
77839;SHT31;67034;43.226;27.932;2023-04-15T14:51:17;19.94;55.02
77839;SHT31;67034;43.226;27.932;2023-04-15T14:53:43;19.36;57.05
77839;SHT31;67034;43.226;27.932;2023-04-15T14:56:09;19.22;57.42
77839;SHT31;67034;43.226;27.932;2023-04-15T14:58:35;19.11;58.02
77839;SHT31;67034;43.226;27.932;2023-04-15T15:01:01;18.88;58.82
77839;SHT31;67034;43.226;27.932;2023-04-15T15:03:29;18.71;59.98
77839;SHT31;67034;43.226;27.932;2023-04-15T15:05:55;18.61;60.30
77839;SHT31;67034;43.226;27.932;2023-04-15T15:08:22;18.71;59.94
77839;SHT31;67034;43.226;27.932;2023-04-15T15:10:48;18.68;59.57
77839;SHT31;67034;43.226;27.932;2023-04-15T15:13:14;18.83;60.19
77839;SHT31;67034;43.226;27.932;2023-04-15T15:15:40;18.81;59.07